sensor_id;sensor_type;location;lat;lon;timestamp;pressure;altitude;pressure_sealevel;temperature
28305;BMP280;15569;42.652;23.040;2023-07-13T00:02:24;93400.59;;;24.67
28305;BMP280;15569;42.652;23.040;2023-07-13T00:04:51;93397.81;;;24.65
28305;BMP280;15569;42.652;23.040;2023-07-13T00:07:17;93391.53;;;24.60
28305;BMP280;15569;42.652;23.040;2023-07-13T00:09:46;93389.50;;;24.59
28305;BMP280;15569;42.652;23.040;2023-07-13T00:12:28;93375.59;;;24.57
28305;BMP280;15569;42.652;23.040;2023-07-13T00:14:56;93390.88;;;24.60
28305;BMP280;15569;42.652;23.040;2023-07-13T00:17:23;93387.38;;;24.57
28305;BMP280;15569;42.652;23.040;2023-07-13T00:19:48;93378.38;;;24.45
28305;BMP280;15569;42.652;23.040;2023-07-13T00:22:13;93387.38;;;24.57
28305;BMP280;15569;42.652;23.040;2023-07-13T00:24:39;93378.38;;;24.51
28305;BMP280;15569;42.652;23.040;2023-07-13T00:27:08;93380.44;;;24.50
28305;BMP280;15569;42.652;23.040;2023-07-13T00:29:35;93372.78;;;24.47
28305;BMP280;15569;42.652;23.040;2023-07-13T00:32:04;93384.59;;;24.49
28305;BMP280;15569;42.652;23.040;2023-07-13T00:34:30;93371.38;;;24.40
28305;BMP280;15569;42.652;23.040;2023-07-13T00:36:56;93376.28;;;24.41
28305;BMP280;15569;42.652;23.040;2023-07-13T00:39:22;93376.97;;;24.42
28305;BMP280;15569;42.652;23.040;2023-07-13T00:41:48;93356.81;;;24.31
28305;BMP280;15569;42.652;23.040;2023-07-13T00:44:14;93358.88;;;24.30
28305;BMP280;15569;42.652;23.040;2023-07-13T00:46:40;93363.75;;;24.36
28305;BMP280;15569;42.652;23.040;2023-07-13T00:49:09;93368.59;;;24.31
28305;BMP280;15569;42.652;23.040;2023-07-13T00:51:49;93374.88;;;24.34
28305;BMP280;15569;42.652;23.040;2023-07-13T00:54:18;93365.81;;;24.27
28305;BMP280;15569;42.652;23.040;2023-07-13T00:56:45;93372.78;;;24.30
28305;BMP280;15569;42.652;23.040;2023-07-13T00:59:13;93375.53;;;24.22
28305;BMP280;15569;42.652;23.040;2023-07-13T01:01:39;93373.47;;;24.23
28305;BMP280;15569;42.652;23.040;2023-07-13T01:04:05;93375.53;;;24.18
28305;BMP280;15569;42.652;23.040;2023-07-13T01:06:35;93371.41;;;24.17
28305;BMP280;15569;42.652;23.040;2023-07-13T01:09:01;93369.97;;;24.18
28305;BMP280;15569;42.652;23.040;2023-07-13T01:11:27;93376.91;;;24.21
28305;BMP280;15569;42.652;23.040;2023-07-13T01:13:52;93372.75;;;24.16
28305;BMP280;15569;42.652;23.040;2023-07-13T01:16:28;93369.97;;;24.18
28305;BMP280;15569;42.652;23.040;2023-07-13T01:18:55;93360.25;;;24.11
28305;BMP280;15569;42.652;23.040;2023-07-13T01:21:23;93365.13;;;24.17
28305;BMP280;15569;42.652;23.040;2023-07-13T01:23:49;93365.78;;;24.15
28305;BMP280;15569;42.652;23.040;2023-07-13T01:26:14;93365.84;;;24.17
28305;BMP280;15569;42.652;23.040;2023-07-13T01:28:39;93360.25;;;24.13
28305;BMP280;15569;42.652;23.040;2023-07-13T01:31:05;93360.94;;;24.12
28305;BMP280;15569;42.652;23.040;2023-07-13T01:33:30;93350.53;;;24.10
28305;BMP280;15569;42.652;23.040;2023-07-13T01:35:56;93354.00;;;24.11
28305;BMP280;15569;42.652;23.040;2023-07-13T01:38:25;93355.38;;;24.08
28305;BMP280;15569;42.652;23.040;2023-07-13T01:40:52;93356.06;;;24.06
28305;BMP280;15569;42.652;23.040;2023-07-13T01:43:18;93344.97;;;24.02
28305;BMP280;15569;42.652;23.040;2023-07-13T01:45:43;93351.88;;;24.01
28305;BMP280;15569;42.652;23.040;2023-07-13T01:48:10;93348.41;;;24.01
28305;BMP280;15569;42.652;23.040;2023-07-13T01:50:35;93356.03;;;23.92
28305;BMP280;15569;42.652;23.040;2023-07-13T01:53:01;93342.16;;;23.90
28305;BMP280;15569;42.652;23.040;2023-07-13T01:55:27;93347.69;;;23.94
28305;BMP280;15569;42.652;23.040;2023-07-13T01:57:53;93353.94;;;23.89
28305;BMP280;15569;42.652;23.040;2023-07-13T02:00:19;93356.75;;;23.91
28305;BMP280;15569;42.652;23.040;2023-07-13T02:02:44;93350.47;;;23.84
28305;BMP280;15569;42.652;23.040;2023-07-13T02:05:11;93353.22;;;23.86
28305;BMP280;15569;42.652;23.040;2023-07-13T02:07:37;93341.41;;;23.80
28305;BMP280;15569;42.652;23.040;2023-07-13T02:10:02;93359.50;;;23.85
28305;BMP280;15569;42.652;23.040;2023-07-13T02:12:28;93353.22;;;23.82
28305;BMP280;15569;42.652;23.040;2023-07-13T02:14:53;93349.06;;;23.81
28305;BMP280;15569;42.652;23.040;2023-07-13T02:17:18;93352.50;;;23.80
28305;BMP280;15569;42.652;23.040;2023-07-13T02:19:44;93351.84;;;23.79
28305;BMP280;15569;42.652;23.040;2023-07-13T02:22:09;93360.88;;;23.78
28305;BMP280;15569;42.652;23.040;2023-07-13T02:24:35;93358.78;;;23.76
28305;BMP280;15569;42.652;23.040;2023-07-13T02:27:00;93349.75;;;23.78
28305;BMP280;15569;42.652;23.040;2023-07-13T02:29:26;93349.03;;;23.71
28305;BMP280;15569;42.652;23.040;2023-07-13T02:31:51;93346.25;;;23.71
28305;BMP280;15569;42.652;23.040;2023-07-13T02:34:16;93359.44;;;23.71
28305;BMP280;15569;42.652;23.040;2023-07-13T02:36:42;93368.44;;;23.63
28305;BMP280;15569;42.652;23.040;2023-07-13T02:39:08;93363.59;;;23.72
28305;BMP280;15569;42.652;23.040;2023-07-13T02:41:34;93362.91;;;23.69
28305;BMP280;15569;42.652;23.040;2023-07-13T02:43:59;93362.91;;;23.69
28305;BMP280;15569;42.652;23.040;2023-07-13T02:46:33;93356.66;;;23.69
28305;BMP280;15569;42.652;23.040;2023-07-13T02:48:59;93354.56;;;23.61
28305;BMP280;15569;42.652;23.040;2023-07-13T02:51:25;93364.31;;;23.72
28305;BMP280;15569;42.652;23.040;2023-07-13T02:53:51;93361.53;;;23.72
28305;BMP280;15569;42.652;23.040;2023-07-13T02:56:16;93363.63;;;23.70
28305;BMP280;15569;42.652;23.040;2023-07-13T02:58:42;93358.03;;;23.64
28305;BMP280;15569;42.652;23.040;2023-07-13T03:01:09;93367.75;;;23.69
28305;BMP280;15569;42.652;23.040;2023-07-13T03:03:35;93369.81;;;23.68
28305;BMP280;15569;42.652;23.040;2023-07-13T03:06:02;93376.09;;;23.69
28305;BMP280;15569;42.652;23.040;2023-07-13T03:08:29;93371.94;;;23.70
28305;BMP280;15569;42.652;23.040;2023-07-13T03:11:09;93374.03;;;23.67
28305;BMP280;15569;42.652;23.040;2023-07-13T03:13:36;93356.63;;;23.63
28305;BMP280;15569;42.652;23.040;2023-07-13T03:16:02;93368.47;;;23.71
28305;BMP280;15569;42.652;23.040;2023-07-13T03:18:28;93368.47;;;23.71
28305;BMP280;15569;42.652;23.040;2023-07-13T03:20:54;93367.78;;;23.73
28305;BMP280;15569;42.652;23.040;2023-07-13T03:23:20;93368.47;;;23.75
28305;BMP280;15569;42.652;23.040;2023-07-13T03:25:46;93375.44;;;23.76
28305;BMP280;15569;42.652;23.040;2023-07-13T03:28:12;93362.19;;;23.69
28305;BMP280;15569;42.652;23.040;2023-07-13T03:30:38;93361.53;;;23.74
28305;BMP280;15569;42.652;23.040;2023-07-13T03:33:04;93378.22;;;23.82
28305;BMP280;15569;42.652;23.040;2023-07-13T03:35:30;93377.53;;;23.82
28305;BMP280;15569;42.652;23.040;2023-07-13T03:37:55;93374.06;;;23.83
28305;BMP280;15569;42.652;23.040;2023-07-13T03:40:22;93377.53;;;23.84
28305;BMP280;15569;42.652;23.040;2023-07-13T03:42:47;93369.91;;;23.84
28305;BMP280;15569;42.652;23.040;2023-07-13T04:19:08;93376.28;;;24.41
28305;BMP280;15569;42.652;23.040;2023-07-13T04:21:36;93381.81;;;24.57
28305;BMP280;15569;42.652;23.040;2023-07-13T04:24:01;93378.38;;;24.65
28305;BMP280;15569;42.652;23.040;2023-07-13T04:26:28;93376.25;;;24.73
28305;BMP280;15569;42.652;23.040;2023-07-13T04:28:54;93370.00;;;24.85
28305;BMP280;15569;42.652;23.040;2023-07-13T04:31:20;93381.13;;;24.85
28305;BMP280;15569;42.652;23.040;2023-07-13T04:33:46;93389.47;;;24.85
28305;BMP280;15569;42.652;23.040;2023-07-13T04:36:11;93386.00;;;24.86
28305;BMP280;15569;42.652;23.040;2023-07-13T04:38:37;93385.28;;;24.96
28305;BMP280;15569;42.652;23.040;2023-07-13T04:41:05;93390.84;;;24.94
28305;BMP280;15569;42.652;23.040;2023-07-13T04:43:31;93382.53;;;24.76
28305;BMP280;15569;42.652;23.040;2023-07-13T04:46:02;93385.31;;;24.76
28305;BMP280;15569;42.652;23.040;2023-07-13T04:48:27;93401.97;;;24.64
28305;BMP280;15569;42.652;23.040;2023-07-13T04:50:57;93395.72;;;24.57
28305;BMP280;15569;42.652;23.040;2023-07-13T04:53:23;93406.19;;;24.63
28305;BMP280;15569;42.652;23.040;2023-07-13T04:55:49;93410.34;;;24.74
28305;BMP280;15569;42.652;23.040;2023-07-13T04:58:14;93401.97;;;24.72
28305;BMP280;15569;42.652;23.040;2023-07-13T05:00:40;93404.06;;;24.63
28305;BMP280;15569;42.652;23.040;2023-07-13T05:03:05;93399.22;;;24.82
28305;BMP280;15569;42.652;23.040;2023-07-13T05:05:31;93404.06;;;24.85
28305;BMP280;15569;42.652;23.040;2023-07-13T05:07:57;93413.09;;;24.88
28305;BMP280;15569;42.652;23.040;2023-07-13T05:10:22;93399.84;;;24.36
28305;BMP280;15569;42.652;23.040;2023-07-13T05:12:48;93413.78;;;24.40
28305;BMP280;15569;42.652;23.040;2023-07-13T05:15:14;93411.72;;;24.69
28305;BMP280;15569;42.652;23.040;2023-07-13T05:17:39;93414.47;;;24.87
28305;BMP280;15569;42.652;23.040;2023-07-13T05:20:06;93412.41;;;24.93
28305;BMP280;15569;42.652;23.040;2023-07-13T05:22:32;93420.03;;;25.11
28305;BMP280;15569;42.652;23.040;2023-07-13T05:24:57;93418.66;;;25.12
28305;BMP280;15569;42.652;23.040;2023-07-13T05:27:23;93418.63;;;25.24
28305;BMP280;15569;42.652;23.040;2023-07-13T05:29:48;93415.81;;;25.38
28305;BMP280;15569;42.652;23.040;2023-07-13T05:32:14;93420.69;;;25.45
28305;BMP280;15569;42.652;23.040;2023-07-13T05:34:39;93419.94;;;25.51
28305;BMP280;15569;42.652;23.040;2023-07-13T05:37:05;93432.41;;;25.64
28305;BMP280;15569;42.652;23.040;2023-07-13T05:39:30;93426.19;;;25.65
28305;BMP280;15569;42.652;23.040;2023-07-13T05:41:55;93429.69;;;25.56
28305;BMP280;15569;42.652;23.040;2023-07-13T05:49:08;93427.69;;;25.30
28305;BMP280;15569;42.652;23.040;2023-07-13T05:51:33;93426.97;;;25.30
28305;BMP280;15569;42.652;23.040;2023-07-13T05:53:58;93407.44;;;25.50
28305;BMP280;15569;42.652;23.040;2023-07-13T05:56:24;93413.69;;;25.46
28305;BMP280;15569;42.652;23.040;2023-07-13T05:58:50;93418.56;;;25.56
28305;BMP280;15569;42.652;23.040;2023-07-13T06:01:16;93413.69;;;25.56
28305;BMP280;15569;42.652;23.040;2023-07-13T06:03:42;93416.38;;;25.78
28305;BMP280;15569;42.652;23.040;2023-07-13T06:06:09;93419.88;;;25.67
28305;BMP280;15569;42.652;23.040;2023-07-13T06:08:35;93415.72;;;25.64
28305;BMP280;15569;42.652;23.040;2023-07-13T06:11:06;93412.13;;;25.87
28305;BMP280;15569;42.652;23.040;2023-07-13T06:13:32;93411.38;;;26.03
28305;BMP280;15569;42.652;23.040;2023-07-13T06:15:58;93419.66;;;26.17
28305;BMP280;15569;42.652;23.040;2023-07-13T06:18:23;93414.06;;;26.21
28305;BMP280;15569;42.652;23.040;2023-07-13T06:20:49;93418.25;;;26.22
28305;BMP280;15569;42.652;23.040;2023-07-13T06:23:14;93423.72;;;26.40
28305;BMP280;15569;42.652;23.040;2023-07-13T06:25:40;93423.00;;;26.44
28305;BMP280;15569;42.652;23.040;2023-07-13T06:28:05;93420.78;;;26.58
28305;BMP280;15569;42.652;23.040;2023-07-13T06:30:31;93412.31;;;26.68
28305;BMP280;15569;42.652;23.040;2023-07-13T06:32:57;93417.94;;;26.66
28305;BMP280;15569;42.652;23.040;2023-07-13T06:35:22;93418.41;;;26.93
28305;BMP280;15569;42.652;23.040;2023-07-13T06:37:47;93420.72;;;26.70
28305;BMP280;15569;42.652;23.040;2023-07-13T06:40:13;93427.16;;;26.43
28305;BMP280;15569;42.652;23.040;2023-07-13T06:42:38;93427.78;;;26.53
28305;BMP280;15569;42.652;23.040;2023-07-13T06:45:04;93420.28;;;26.32
28305;BMP280;15569;42.652;23.040;2023-07-13T06:47:30;93416.88;;;26.15
28305;BMP280;15569;42.652;23.040;2023-07-13T06:49:55;93413.97;;;26.35
28305;BMP280;15569;42.652;23.040;2023-07-13T06:52:20;93411.03;;;26.55
28305;BMP280;15569;42.652;23.040;2023-07-13T06:54:46;93422.00;;;26.77
28305;BMP280;15569;42.652;23.040;2023-07-13T06:57:11;93420.13;;;26.50
28305;BMP280;15569;42.652;23.040;2023-07-13T06:59:37;93424.28;;;26.53
28305;BMP280;15569;42.652;23.040;2023-07-13T07:02:02;93418.06;;;26.50
28305;BMP280;15569;42.652;23.040;2023-07-13T07:04:28;93408.91;;;26.64
28305;BMP280;15569;42.652;23.040;2023-07-13T07:06:54;93423.50;;;26.70
28305;BMP280;15569;42.652;23.040;2023-07-13T07:09:19;93436.09;;;26.63
28305;BMP280;15569;42.652;23.040;2023-07-13T07:11:44;93415.09;;;26.76
28305;BMP280;15569;42.652;23.040;2023-07-13T07:14:10;93419.25;;;26.75
28305;BMP280;15569;42.652;23.040;2023-07-13T07:16:35;93423.31;;;26.92
28305;BMP280;15569;42.652;23.040;2023-07-13T07:19:01;93414.03;;;27.14
28305;BMP280;15569;42.652;23.040;2023-07-13T07:21:26;93413.13;;;27.35
28305;BMP280;15569;42.652;23.040;2023-07-13T07:23:52;93413.78;;;27.38
28305;BMP280;15569;42.652;23.040;2023-07-13T07:26:18;93413.88;;;27.28
28305;BMP280;15569;42.652;23.040;2023-07-13T07:28:44;93403.66;;;27.04
28305;BMP280;15569;42.652;23.040;2023-07-13T07:31:09;93410.31;;;27.33
28305;BMP280;15569;42.652;23.040;2023-07-13T07:33:35;93401.63;;;27.59
28305;BMP280;15569;42.652;23.040;2023-07-13T07:36:01;93398.13;;;27.61
28305;BMP280;15569;42.652;23.040;2023-07-13T07:38:26;93394.66;;;27.60
28305;BMP280;15569;42.652;23.040;2023-07-13T07:40:52;93393.16;;;27.67
28305;BMP280;15569;42.652;23.040;2023-07-13T07:43:18;93392.50;;;27.65
28305;BMP280;15569;42.652;23.040;2023-07-13T07:45:44;93388.66;;;27.93
28305;BMP280;15569;42.652;23.040;2023-07-13T07:48:10;93381.69;;;27.92
28305;BMP280;15569;42.652;23.040;2023-07-13T07:50:36;93388.47;;;28.05
28305;BMP280;15569;42.652;23.040;2023-07-13T07:53:02;93381.34;;;28.16
28305;BMP280;15569;42.652;23.040;2023-07-13T07:55:28;93381.00;;;28.38
28305;BMP280;15569;42.652;23.040;2023-07-13T07:57:54;93371.16;;;28.41
28305;BMP280;15569;42.652;23.040;2023-07-13T08:00:20;93380.72;;;28.56
28305;BMP280;15569;42.652;23.040;2023-07-13T08:02:45;93360.19;;;28.69
28305;BMP280;15569;42.652;23.040;2023-07-13T08:05:11;93351.59;;;28.41
28305;BMP280;15569;42.652;23.040;2023-07-13T08:07:38;93366.28;;;28.41
28305;BMP280;15569;42.652;23.040;2023-07-13T08:10:05;93364.19;;;28.42
28305;BMP280;15569;42.652;23.040;2023-07-13T08:12:37;93361.84;;;28.56
28305;BMP280;15569;42.652;23.040;2023-07-13T08:15:03;93354.88;;;28.53
28305;BMP280;15569;42.652;23.040;2023-07-13T08:17:28;93351.41;;;28.53
28305;BMP280;15569;42.652;23.040;2023-07-13T08:19:54;93357.19;;;28.81
28305;BMP280;15569;42.652;23.040;2023-07-13T08:22:20;93341.94;;;28.72
28305;BMP280;15569;42.652;23.040;2023-07-13T08:24:45;93349.97;;;28.94
28305;BMP280;15569;42.652;23.040;2023-07-13T08:27:12;93345.19;;;28.89
28305;BMP280;15569;42.652;23.040;2023-07-13T08:29:38;93346.16;;;29.10
28305;BMP280;15569;42.652;23.040;2023-07-13T08:32:07;93340.31;;;29.24
28305;BMP280;15569;42.652;23.040;2023-07-13T08:34:36;93338.97;;;29.21
28305;BMP280;15569;42.652;23.040;2023-07-13T08:37:02;93334.63;;;29.28
28305;BMP280;15569;42.652;23.040;2023-07-13T08:39:29;93336.47;;;29.39
28305;BMP280;15569;42.652;23.040;2023-07-13T08:42:00;93332.72;;;29.51
28305;BMP280;15569;42.652;23.040;2023-07-13T08:44:57;93335.59;;;29.49
28305;BMP280;15569;42.652;23.040;2023-07-13T08:47:26;93340.13;;;29.66
28305;BMP280;15569;42.652;23.040;2023-07-13T08:49:52;93335.22;;;29.67
28305;BMP280;15569;42.652;23.040;2023-07-13T08:52:26;93342.03;;;29.74
28305;BMP280;15569;42.652;23.040;2023-07-13T08:54:55;93344.53;;;29.88
28305;BMP280;15569;42.652;23.040;2023-07-13T08:57:33;93346.19;;;29.77
28305;BMP280;15569;42.652;23.040;2023-07-13T08:59:59;93361.34;;;29.88
28305;BMP280;15569;42.652;23.040;2023-07-13T09:02:54;93368.03;;;30.03
28305;BMP280;15569;42.652;23.040;2023-07-13T09:05:29;93363.75;;;30.06
28305;BMP280;15569;42.652;23.040;2023-07-13T09:08:25;93364.84;;;30.19
28305;BMP280;15569;42.652;23.040;2023-07-13T09:16:34;93369.06;;;30.49
28305;BMP280;15569;42.652;23.040;2023-07-13T09:19:04;93367.13;;;30.41
28305;BMP280;15569;42.652;23.040;2023-07-13T09:21:38;93375.22;;;30.53
28305;BMP280;15569;42.652;23.040;2023-07-13T09:24:47;93376.69;;;30.52
28305;BMP280;15569;42.652;23.040;2023-07-13T09:27:18;93383.66;;;30.82
28305;BMP280;15569;42.652;23.040;2023-07-13T09:32:36;93393.09;;;30.97
28305;BMP280;15569;42.652;23.040;2023-07-13T09:35:16;93373.13;;;30.80
28305;BMP280;15569;42.652;23.040;2023-07-13T09:37:43;93381.53;;;30.82
28305;BMP280;15569;42.652;23.040;2023-07-13T09:40:17;93373.34;;;30.72
28305;BMP280;15569;42.652;23.040;2023-07-13T09:42:44;93388.00;;;31.03
28305;BMP280;15569;42.652;23.040;2023-07-13T09:45:09;93386.47;;;31.08
28305;BMP280;15569;42.652;23.040;2023-07-13T09:47:39;93380.78;;;31.10
28305;BMP280;15569;42.652;23.040;2023-07-13T09:50:15;93370.03;;;30.92
28305;BMP280;15569;42.652;23.040;2023-07-13T09:52:46;93368.66;;;30.91
28305;BMP280;15569;42.652;23.040;2023-07-13T09:55:42;93366.53;;;30.92
28305;BMP280;15569;42.652;23.040;2023-07-13T10:00:37;93354.72;;;31.14
28305;BMP280;15569;42.652;23.040;2023-07-13T10:05:43;93341.53;;;31.08
28305;BMP280;15569;42.652;23.040;2023-07-13T10:08:29;93338.13;;;31.28
28305;BMP280;15569;42.652;23.040;2023-07-13T10:11:00;93336.38;;;31.41
28305;BMP280;15569;42.652;23.040;2023-07-13T10:16:16;93334.53;;;31.56
28305;BMP280;15569;42.652;23.040;2023-07-13T10:19:18;93333.56;;;31.64
28305;BMP280;15569;42.652;23.040;2023-07-13T10:21:57;93346.72;;;31.94
28305;BMP280;15569;42.652;23.040;2023-07-13T10:24:36;93341.78;;;31.94
28305;BMP280;15569;42.652;23.040;2023-07-13T10:27:17;93341.66;;;31.98
28305;BMP280;15569;42.652;23.040;2023-07-13T10:29:50;93338.72;;;32.02
28305;BMP280;15569;42.652;23.040;2023-07-13T10:32:19;93330.03;;;31.88
28305;BMP280;15569;42.652;23.040;2023-07-13T10:34:47;93327.25;;;32.08
28305;BMP280;15569;42.652;23.040;2023-07-13T10:37:30;93314.91;;;31.99
28305;BMP280;15569;42.652;23.040;2023-07-13T10:39:58;93322.53;;;32.03
28305;BMP280;15569;42.652;23.040;2023-07-13T10:42:30;93327.91;;;31.88
28305;BMP280;15569;42.652;23.040;2023-07-13T10:44:57;93309.72;;;32.08
28305;BMP280;15569;42.652;23.040;2023-07-13T10:47:24;93318.03;;;32.12
28305;BMP280;15569;42.652;23.040;2023-07-13T10:49:53;93303.91;;;31.91
28305;BMP280;15569;42.652;23.040;2023-07-13T10:56:00;93306.00;;;32.13
28305;BMP280;15569;42.652;23.040;2023-07-13T10:58:41;93306.88;;;32.30
28305;BMP280;15569;42.652;23.040;2023-07-13T11:01:14;93293.84;;;32.41
28305;BMP280;15569;42.652;23.040;2023-07-13T11:08:57;93288.16;;;32.83
28305;BMP280;15569;42.652;23.040;2023-07-13T11:13:57;93273.34;;;32.64
28305;BMP280;15569;42.652;23.040;2023-07-13T11:18:49;93270.56;;;32.82
28305;BMP280;15569;42.652;23.040;2023-07-13T11:21:20;93263.97;;;32.90
28305;BMP280;15569;42.652;23.040;2023-07-13T11:24:03;93254.31;;;33.22
28305;BMP280;15569;42.652;23.040;2023-07-13T11:31:41;93260.41;;;33.47
28305;BMP280;15569;42.652;23.040;2023-07-13T11:34:13;93250.13;;;33.74
28305;BMP280;15569;42.652;23.040;2023-07-13T11:36:43;93262.31;;;34.04
28305;BMP280;15569;42.652;23.040;2023-07-13T11:39:24;93264.69;;;33.81
28305;BMP280;15569;42.652;23.040;2023-07-13T11:41:57;93267.59;;;33.95
28305;BMP280;15569;42.652;23.040;2023-07-13T11:44:24;93269.41;;;33.68
28305;BMP280;15569;42.652;23.040;2023-07-13T11:46:57;93257.16;;;33.75
28305;BMP280;15569;42.652;23.040;2023-07-13T11:49:26;93254.91;;;33.78
28305;BMP280;15569;42.652;23.040;2023-07-13T11:51:52;93242.56;;;34.04
28305;BMP280;15569;42.652;23.040;2023-07-13T11:56:55;93238.66;;;34.46
28305;BMP280;15569;42.652;23.040;2023-07-13T11:59:21;93246.78;;;34.05
28305;BMP280;15569;42.652;23.040;2023-07-13T12:01:51;93240.44;;;34.37
28305;BMP280;15569;42.652;23.040;2023-07-13T12:04:30;93250.19;;;34.24
28305;BMP280;15569;42.652;23.040;2023-07-13T12:06:58;93233.38;;;34.69
28305;BMP280;15569;42.652;23.040;2023-07-13T12:09:28;93241.53;;;34.92
28305;BMP280;15569;42.652;23.040;2023-07-13T12:11:53;93241.47;;;34.46
28305;BMP280;15569;42.652;23.040;2023-07-13T12:14:19;93236.91;;;34.70
28305;BMP280;15569;42.652;23.040;2023-07-13T12:16:46;93226.28;;;34.70
28305;BMP280;15569;42.652;23.040;2023-07-13T12:19:32;93228.84;;;34.76
28305;BMP280;15569;42.652;23.040;2023-07-13T12:21:58;93221.53;;;34.50
28305;BMP280;15569;42.652;23.040;2023-07-13T12:24:25;93223.00;;;35.11
28305;BMP280;15569;42.652;23.040;2023-07-13T12:27:02;93219.13;;;35.33
28305;BMP280;15569;42.652;23.040;2023-07-13T12:29:30;93213.09;;;35.56
28305;BMP280;15569;42.652;23.040;2023-07-13T12:31:56;93213.53;;;35.75
28305;BMP280;15569;42.652;23.040;2023-07-13T12:34:24;93207.91;;;35.17
28305;BMP280;15569;42.652;23.040;2023-07-13T12:41:50;93208.63;;;35.01
28305;BMP280;15569;42.652;23.040;2023-07-13T12:44:18;93200.66;;;34.74
28305;BMP280;15569;42.652;23.040;2023-07-13T12:46:58;93197.81;;;35.05
28305;BMP280;15569;42.652;23.040;2023-07-13T12:49:25;93194.34;;;35.48
28305;BMP280;15569;42.652;23.040;2023-07-13T12:51:56;93183.84;;;35.32
28305;BMP280;15569;42.652;23.040;2023-07-13T12:54:22;93181.47;;;35.51
28305;BMP280;15569;42.652;23.040;2023-07-13T12:56:50;93184.38;;;35.93
28305;BMP280;15569;42.652;23.040;2023-07-13T12:59:20;93191.34;;;35.67
28305;BMP280;15569;42.652;23.040;2023-07-13T13:01:47;93183.38;;;35.84
28305;BMP280;15569;42.652;23.040;2023-07-13T13:04:15;93182.53;;;36.14
28305;BMP280;15569;42.652;23.040;2023-07-13T13:06:41;93172.84;;;36.24
28305;BMP280;15569;42.652;23.040;2023-07-13T13:09:13;93176.31;;;35.56
28305;BMP280;15569;42.652;23.040;2023-07-13T13:11:40;93172.47;;;35.90
28305;BMP280;15569;42.652;23.040;2023-07-13T13:14:06;93170.16;;;35.37
28305;BMP280;15569;42.652;23.040;2023-07-13T13:16:43;93170.53;;;35.72
28305;BMP280;15569;42.652;23.040;2023-07-13T13:19:15;93169.34;;;35.82
28305;BMP280;15569;42.652;23.040;2023-07-13T13:21:43;93170.88;;;36.35
28305;BMP280;15569;42.652;23.040;2023-07-13T13:24:14;93164.75;;;35.89
28305;BMP280;15569;42.652;23.040;2023-07-13T13:26:41;93166.75;;;36.59
28305;BMP280;15569;42.652;23.040;2023-07-13T13:29:15;93149.44;;;36.65
28305;BMP280;15569;42.652;23.040;2023-07-13T13:31:42;93159.13;;;36.16
28305;BMP280;15569;42.652;23.040;2023-07-13T13:34:11;93166.88;;;36.03
28305;BMP280;15569;42.652;23.040;2023-07-13T13:36:37;93167.09;;;35.84
28305;BMP280;15569;42.652;23.040;2023-07-13T13:39:10;93157.75;;;36.42
28305;BMP280;15569;42.652;23.040;2023-07-13T13:41:41;93158.03;;;35.82
28305;BMP280;15569;42.652;23.040;2023-07-13T13:44:09;93159.97;;;36.27
28305;BMP280;15569;42.652;23.040;2023-07-13T13:46:35;93141.25;;;36.59
28305;BMP280;15569;42.652;23.040;2023-07-13T13:49:00;93144.88;;;36.57
28305;BMP280;15569;42.652;23.040;2023-07-13T13:51:26;93148.88;;;36.35
28305;BMP280;15569;42.652;23.040;2023-07-13T13:53:52;93161.63;;;35.95
28305;BMP280;15569;42.652;23.040;2023-07-13T13:56:19;93161.66;;;35.80
28305;BMP280;15569;42.652;23.040;2023-07-13T13:58:45;93159.16;;;36.28
28305;BMP280;15569;42.652;23.040;2023-07-13T14:01:20;93150.47;;;36.32
28305;BMP280;15569;42.652;23.040;2023-07-13T14:03:46;93151.28;;;36.04
28305;BMP280;15569;42.652;23.040;2023-07-13T14:06:15;93162.28;;;36.37
28305;BMP280;15569;42.652;23.040;2023-07-13T14:08:40;93160.03;;;35.71
28305;BMP280;15569;42.652;23.040;2023-07-13T14:11:11;93161.06;;;35.78
28305;BMP280;15569;42.652;23.040;2023-07-13T14:13:41;93160.16;;;35.96
28305;BMP280;15569;42.652;23.040;2023-07-13T14:16:12;93151.41;;;36.14
28305;BMP280;15569;42.652;23.040;2023-07-13T14:18:38;93152.97;;;36.38
28305;BMP280;15569;42.652;23.040;2023-07-13T14:21:11;93151.97;;;36.44
28305;BMP280;15569;42.652;23.040;2023-07-13T14:23:37;93155.44;;;36.32
28305;BMP280;15569;42.652;23.040;2023-07-13T14:26:09;93147.22;;;36.13
28305;BMP280;15569;42.652;23.040;2023-07-13T14:28:35;93137.38;;;36.52
28305;BMP280;15569;42.652;23.040;2023-07-13T14:31:02;93147.13;;;36.55
28305;BMP280;15569;42.652;23.040;2023-07-13T14:33:27;93153.16;;;35.95
28305;BMP280;15569;42.652;23.040;2023-07-13T14:35:53;93146.72;;;35.82
28305;BMP280;15569;42.652;23.040;2023-07-13T14:38:19;93138.94;;;36.49
28305;BMP280;15569;42.652;23.040;2023-07-13T14:40:46;93140.38;;;36.35
28305;BMP280;15569;42.652;23.040;2023-07-13T14:43:15;93140.53;;;36.46
28305;BMP280;15569;42.652;23.040;2023-07-13T14:45:45;93140.19;;;36.52
28305;BMP280;15569;42.652;23.040;2023-07-13T14:48:20;93145.28;;;36.10
28305;BMP280;15569;42.652;23.040;2023-07-13T14:50:46;93142.56;;;36.35
28305;BMP280;15569;42.652;23.040;2023-07-13T14:53:13;93136.44;;;36.43
28305;BMP280;15569;42.652;23.040;2023-07-13T14:55:39;93127.56;;;35.97
28305;BMP280;15569;42.652;23.040;2023-07-13T14:58:04;93131.19;;;35.95
28305;BMP280;15569;42.652;23.040;2023-07-13T15:00:30;93130.50;;;35.95
28305;BMP280;15569;42.652;23.040;2023-07-13T15:02:57;93136.22;;;36.47
28305;BMP280;15569;42.652;23.040;2023-07-13T15:05:29;93136.81;;;36.49
28305;BMP280;15569;42.652;23.040;2023-07-13T15:07:57;93133.47;;;35.78
28305;BMP280;15569;42.652;23.040;2023-07-13T15:10:27;93139.75;;;35.52
28305;BMP280;15569;42.652;23.040;2023-07-13T15:13:00;93130.91;;;35.87
28305;BMP280;15569;42.652;23.040;2023-07-13T15:15:30;93132.69;;;35.80
28305;BMP280;15569;42.652;23.040;2023-07-13T15:17:57;93126.63;;;35.88
28305;BMP280;15569;42.652;23.040;2023-07-13T15:20:27;93135.84;;;35.59
28305;BMP280;15569;42.652;23.040;2023-07-13T15:22:54;93131.47;;;36.16
28305;BMP280;15569;42.652;23.040;2023-07-13T15:25:25;93138.09;;;36.25